Time;durP1;ratioP1;P1;durP2;ratioP2;P2;SDS_P1;SDS_P2;PMS_P1;PMS_P2;Temp;Humidity;BMP_temperature;BMP_pressure;BME280_temperature;BME280_humidity;BME280_pressure;Samples;Min_cycle;Max_cycle;Signal;HPM_P1;HPM_P2
2023/05/25 00:02:16;;;;;;;;;;;;;;;21.66;nan;102304.84;5041232;28;20368;-82
2023/05/25 00:04:41;;;;;;;;;;;;;;;21.66;nan;102304.03;5046091;28;20012;-82
2023/05/25 00:07:07;;;;;;;;;;;;;;;21.67;nan;102300.22;5043889;28;19927;-82
2023/05/25 00:09:33;;;;;;;;;;;;;;;21.64;nan;102303.50;5045143;28;19916;-82
2023/05/25 00:11:58;;;;;;;;;;;;;;;21.61;nan;102306.81;5045692;28;19921;-82
2023/05/25 00:14:24;;;;;;;;;;;;;;;21.59;nan;102306.28;5049071;28;20177;-82
2023/05/25 00:16:50;;;;;;;;;;;;;;;21.58;nan;102310.09;5046986;28;20128;-82
2023/05/25 00:19:17;;;;;;;;;;;;;;;21.58;nan;102301.94;5044748;28;19935;-82
2023/05/25 00:21:44;;;;;;;;;;;;;;;21.56;nan;102304.94;5041287;28;19952;-82
2023/05/25 00:24:10;;;;;;;;;;;;;;;21.56;nan;102304.13;5046154;28;19916;-82
2023/05/25 00:26:35;;;;;;;;;;;;;;;21.54;nan;102303.56;5047639;28;19925;-82
2023/05/25 00:29:01;;;;;;;;;;;;;;;21.49;nan;102300.88;5053182;28;19917;-82
2023/05/25 00:31:27;;;;;;;;;;;;;;;21.49;nan;102298.97;5049697;28;20411;-82
2023/05/25 00:33:52;;;;;;;;;;;;;;;21.48;nan;102294.63;5048658;28;19952;-82
2023/05/25 00:36:18;;;;;;;;;;;;;;;21.49;nan;102296.25;5047821;28;19928;-82
2023/05/25 00:38:43;;;;;;;;;;;;;;;21.47;nan;102294.91;5049729;28;20063;-82
2023/05/25 00:41:08;;;;;;;;;;;;;;;21.42;nan;102288.41;5049396;28;19920;-82
2023/05/25 00:43:34;;;;;;;;;;;;;;;21.37;nan;102293.09;5050749;28;19920;-82
2023/05/25 00:45:59;;;;;;;;;;;;;;;21.30;nan;102290.66;5048772;28;19932;-82
2023/05/25 00:48:25;;;;;;;;;;;;;;;21.25;nan;102287.16;5048756;28;19921;-82
2023/05/25 00:50:53;;;;;;;;;;;;;;;21.21;nan;102289.59;5043074;28;19917;-82
2023/05/25 00:53:18;;;;;;;;;;;;;;;21.17;nan;102299.41;5048646;28;20547;-82
2023/05/25 00:55:47;;;;;;;;;;;;;;;21.16;nan;102292.34;5048580;28;20273;-82
2023/05/25 00:58:15;;;;;;;;;;;;;;;21.20;nan;102289.91;5049138;28;20401;-82
2023/05/25 01:00:41;;;;;;;;;;;;;;;21.19;nan;102293.72;5060564;28;19928;-82
2023/05/25 01:03:16;;;;;;;;;;;;;;;21.21;nan;102294.25;5049482;28;19943;-82
2023/05/25 01:05:44;;;;;;;;;;;;;;;21.21;nan;102295.06;5046411;28;20422;-82
2023/05/25 01:08:10;;;;;;;;;;;;;;;21.21;nan;102288.78;5046556;28;20376;-82
2023/05/25 01:10:37;;;;;;;;;;;;;;;21.18;nan;102289.34;5047877;28;20033;-82
2023/05/25 01:13:03;;;;;;;;;;;;;;;21.13;nan;102293.72;5048121;28;20293;-82
2023/05/25 01:15:29;;;;;;;;;;;;;;;21.08;nan;102291.03;5047684;28;19968;-82
2023/05/25 01:17:58;;;;;;;;;;;;;;;21.02;nan;102294.91;5047131;28;19924;-82
2023/05/25 01:20:26;;;;;;;;;;;;;;;20.95;nan;102285.38;5045705;28;19925;-82
2023/05/25 01:22:58;;;;;;;;;;;;;;;20.89;nan;102287.34;5047002;28;19928;-82
2023/05/25 01:25:26;;;;;;;;;;;;;;;20.84;nan;102292.81;5042090;28;20444;-82
2023/05/25 01:28:18;;;;;;;;;;;;;;;20.75;nan;102302.66;5049579;28;20296;-82
2023/05/25 01:30:45;;;;;;;;;;;;;;;20.65;nan;102297.25;5042937;28;21503;-82
2023/05/25 01:33:11;;;;;;;;;;;;;;;20.60;nan;102300.78;5047047;28;19917;-82
2023/05/25 01:35:37;;;;;;;;;;;;;;;20.54;nan;102296.47;5048318;28;19924;-82
2023/05/25 01:38:03;;;;;;;;;;;;;;;20.49;nan;102304.66;5049478;28;19916;-82
2023/05/25 01:40:28;;;;;;;;;;;;;;;20.43;nan;102306.56;5044725;28;20487;-82
2023/05/25 01:42:53;;;;;;;;;;;;;;;20.36;nan;102302.47;5046607;28;19916;-82
2023/05/25 01:45:19;;;;;;;;;;;;;;;20.29;nan;102300.06;5044445;28;19955;-82
2023/05/25 01:47:45;;;;;;;;;;;;;;;20.25;nan;102298.13;5047310;28;20399;-82
2023/05/25 01:50:17;;;;;;;;;;;;;;;20.19;nan;102295.44;5047979;28;20297;-81
2023/05/25 01:52:50;;;;;;;;;;;;;;;20.13;nan;102296.53;5045259;28;19931;-82
2023/05/25 01:55:17;;;;;;;;;;;;;;;20.05;nan;102294.34;5040321;28;19929;-82
2023/05/25 01:57:45;;;;;;;;;;;;;;;19.98;nan;102293.03;5046590;28;19952;-82
2023/05/25 02:00:14;;;;;;;;;;;;;;;19.91;nan;102299.53;5043601;28;19917;-82
2023/05/25 02:02:41;;;;;;;;;;;;;;;19.85;nan;102307.97;5043746;28;19921;-81
2023/05/25 02:05:08;;;;;;;;;;;;;;;19.81;nan;102299.56;5047126;28;20394;-82
2023/05/25 02:07:33;;;;;;;;;;;;;;;19.76;nan;102296.03;5046964;28;19920;-81
2023/05/25 02:09:58;;;;;;;;;;;;;;;19.69;nan;102293.56;5048425;28;20058;-82
2023/05/25 02:12:24;;;;;;;;;;;;;;;19.61;nan;102294.94;5046032;28;20360;-82
2023/05/25 02:14:49;;;;;;;;;;;;;;;19.55;nan;102301.44;5047323;28;19921;-82
2023/05/25 02:17:18;;;;;;;;;;;;;;;19.49;nan;102302.50;5046101;28;19916;-81
2023/05/25 02:19:44;;;;;;;;;;;;;;;19.45;nan;102306.84;5044362;28;19917;-81
2023/05/25 02:22:09;;;;;;;;;;;;;;;19.40;nan;102301.41;5044879;28;19924;-82
2023/05/25 02:24:36;;;;;;;;;;;;;;;19.34;nan;102297.03;5045702;28;19917;-81
2023/05/25 02:27:02;;;;;;;;;;;;;;;19.30;nan;102302.19;5046452;28;20004;-81
2023/05/25 02:29:27;;;;;;;;;;;;;;;19.24;nan;102297.84;5044353;28;19943;-82
2023/05/25 02:31:53;;;;;;;;;;;;;;;19.20;nan;102298.63;5045446;28;19917;-81
2023/05/25 02:34:18;;;;;;;;;;;;;;;19.15;nan;102298.63;5043029;28;20399;-81
2023/05/25 02:36:43;;;;;;;;;;;;;;;19.10;nan;102304.88;5044904;28;19923;-82
2023/05/25 02:39:09;;;;;;;;;;;;;;;19.05;nan;102302.16;5048140;28;19975;-82
2023/05/25 02:41:35;;;;;;;;;;;;;;;19.00;nan;102311.06;5046392;28;19923;-81
2023/05/25 02:44:00;;;;;;;;;;;;;;;18.95;nan;102313.78;5044180;28;19920;-83
2023/05/25 02:46:25;;;;;;;;;;;;;;;18.91;nan;102307.25;5045879;28;19925;-82
2023/05/25 02:48:51;;;;;;;;;;;;;;;18.87;nan;102294.47;5063039;28;19948;-81
2023/05/25 02:51:16;;;;;;;;;;;;;;;18.82;nan;102306.13;5044087;28;20099;-82
2023/05/25 02:53:41;;;;;;;;;;;;;;;18.78;nan;102305.03;5043971;28;19920;-82
2023/05/25 02:56:09;;;;;;;;;;;;;;;18.75;nan;102300.13;5046724;28;19928;-82
2023/05/25 02:58:34;;;;;;;;;;;;;;;18.68;nan;102292.22;5045985;28;19920;-81
2023/05/25 03:01:00;;;;;;;;;;;;;;;18.64;nan;102301.97;5045502;28;20028;-82
2023/05/25 03:03:26;;;;;;;;;;;;;;;18.59;nan;102298.38;5045222;28;19948;-82
2023/05/25 03:05:51;;;;;;;;;;;;;;;18.56;nan;102293.50;5046309;28;20368;-82
2023/05/25 03:08:17;;;;;;;;;;;;;;;18.54;nan;102301.09;5044678;28;20542;-82
2023/05/25 03:10:42;;;;;;;;;;;;;;;18.50;nan;102298.09;5043637;28;20385;-81
2023/05/25 03:13:07;;;;;;;;;;;;;;;18.49;nan;102298.31;5041364;28;20351;-81
2023/05/25 03:15:33;;;;;;;;;;;;;;;18.45;nan;102298.03;5044312;28;19917;-81
2023/05/25 03:18:00;;;;;;;;;;;;;;;18.43;nan;102290.16;5045283;28;20273;-81
2023/05/25 03:20:26;;;;;;;;;;;;;;;18.43;nan;102294.78;5042602;28;20118;-81
2023/05/25 03:22:51;;;;;;;;;;;;;;;18.40;nan;102300.72;5043341;28;19920;-82
2023/05/25 03:25:16;;;;;;;;;;;;;;;18.39;nan;102310.78;5046291;28;20457;-81
2023/05/25 03:27:42;;;;;;;;;;;;;;;18.36;nan;102310.47;5045586;28;20377;-81
2023/05/25 03:30:07;;;;;;;;;;;;;;;18.34;nan;102309.94;5043678;28;20237;-81
2023/05/25 03:32:33;;;;;;;;;;;;;;;18.34;nan;102310.75;5045547;28;19924;-81
2023/05/25 03:34:58;;;;;;;;;;;;;;;18.34;nan;102318.88;5044619;28;19987;-81
2023/05/25 03:37:24;;;;;;;;;;;;;;;18.33;nan;102324.56;5045254;28;20583;-81
2023/05/25 03:39:49;;;;;;;;;;;;;;;18.33;nan;102317.25;5046145;28;19917;-81
2023/05/25 03:42:14;;;;;;;;;;;;;;;18.34;nan;102320.78;5042200;28;19943;-81
2023/05/25 03:44:40;;;;;;;;;;;;;;;18.33;nan;102328.09;5045932;28;19952;-81
2023/05/25 03:47:05;;;;;;;;;;;;;;;18.34;nan;102337.06;5042712;28;20051;-81
2023/05/25 03:49:31;;;;;;;;;;;;;;;18.33;nan;102341.69;5041775;28;20016;-81
2023/05/25 03:51:58;;;;;;;;;;;;;;;18.32;nan;102340.03;5042494;28;20575;-81
2023/05/25 03:54:24;;;;;;;;;;;;;;;18.32;nan;102342.75;5045437;28;19928;-81
2023/05/25 03:56:49;;;;;;;;;;;;;;;18.34;nan;102343.31;5041713;28;20492;-82
2023/05/25 03:59:15;;;;;;;;;;;;;;;18.41;nan;102349.31;5043485;28;20339;-82
2023/05/25 04:01:40;;;;;;;;;;;;;;;18.50;nan;102344.22;5049459;28;19962;-82
2023/05/25 04:04:05;;;;;;;;;;;;;;;18.55;nan;102355.09;5049661;28;20316;-82
2023/05/25 04:06:32;;;;;;;;;;;;;;;18.58;nan;102357.28;5049210;28;20889;-82
2023/05/25 04:08:58;;;;;;;;;;;;;;;18.57;nan;102350.22;5047824;28;20392;-81
2023/05/25 04:11:24;;;;;;;;;;;;;;;18.61;nan;102359.47;5045355;28;19960;-81
2023/05/25 04:13:50;;;;;;;;;;;;;;;18.65;nan;102354.34;5054377;28;19944;-81
2023/05/25 04:16:15;;;;;;;;;;;;;;;18.69;nan;102358.22;5047780;28;19959;-81
2023/05/25 04:18:40;;;;;;;;;;;;;;;18.75;nan;102357.13;5045807;28;19916;-82
2023/05/25 04:21:06;;;;;;;;;;;;;;;18.81;nan;102353.34;5043695;28;19947;-82
2023/05/25 04:23:32;;;;;;;;;;;;;;;18.89;nan;102352.88;5047864;28;19975;-81
2023/05/25 04:25:58;;;;;;;;;;;;;;;18.95;nan;102357.22;5044986;28;19929;-82
2023/05/25 04:28:24;;;;;;;;;;;;;;;18.98;nan;102351.28;5039064;28;19921;-82
2023/05/25 04:30:50;;;;;;;;;;;;;;;19.05;nan;102355.66;5044467;28;19916;-82
2023/05/25 04:33:16;;;;;;;;;;;;;;;19.11;nan;102357.31;5045267;28;20024;-81
2023/05/25 04:35:42;;;;;;;;;;;;;;;19.18;nan;102358.66;5040240;28;19916;-82
2023/05/25 04:38:07;;;;;;;;;;;;;;;19.27;nan;102359.00;5048785;28;19923;-81
2023/05/25 04:40:34;;;;;;;;;;;;;;;19.36;nan;102351.94;5054182;28;19921;-82
2023/05/25 04:42:59;;;;;;;;;;;;;;;19.44;nan;102350.59;5053466;28;19917;-82
2023/05/25 04:45:25;;;;;;;;;;;;;;;19.50;nan;102357.69;5044500;28;20376;-82
2023/05/25 04:47:50;;;;;;;;;;;;;;;19.57;nan;102355.56;5039593;28;19917;-82
2023/05/25 04:50:15;;;;;;;;;;;;;;;19.67;nan;102357.47;5043917;28;19921;-82
2023/05/25 04:52:41;;;;;;;;;;;;;;;19.75;nan;102354.19;5050785;28;19917;-82
2023/05/25 04:55:06;;;;;;;;;;;;;;;19.84;nan;102360.75;5046856;28;19925;-81
2023/05/25 04:57:31;;;;;;;;;;;;;;;19.95;nan;102362.41;5044273;28;19921;-82
2023/05/25 04:59:57;;;;;;;;;;;;;;;20.03;nan;102355.59;5043580;28;19916;-82
2023/05/25 05:02:23;;;;;;;;;;;;;;;20.10;nan;102362.38;5044942;28;19955;-82
2023/05/25 05:04:52;;;;;;;;;;;;;;;20.13;nan;102361.84;5043328;28;20361;-82
2023/05/25 05:07:17;;;;;;;;;;;;;;;20.13;nan;102361.84;5042048;28;19971;-82
2023/05/25 05:09:43;;;;;;;;;;;;;;;20.18;nan;102366.47;5040044;28;19917;-82
2023/05/25 05:12:08;;;;;;;;;;;;;;;20.20;nan;102373.25;5039326;28;19924;-82
2023/05/25 05:14:33;;;;;;;;;;;;;;;20.29;nan;102370.81;5045681;28;19975;-82
2023/05/25 05:16:59;;;;;;;;;;;;;;;20.37;nan;102366.72;5041691;28;19923;-82
2023/05/25 05:19:24;;;;;;;;;;;;;;;20.43;nan;102377.34;5042980;28;19925;-82
2023/05/25 05:21:50;;;;;;;;;;;;;;;20.48;nan;102373.81;5042679;28;20045;-82
2023/05/25 05:24:15;;;;;;;;;;;;;;;20.49;nan;102384.44;5045625;28;20296;-82
2023/05/25 05:26:41;;;;;;;;;;;;;;;20.52;nan;102381.16;5041774;28;19932;-82
2023/05/25 05:29:06;;;;;;;;;;;;;;;20.53;nan;102387.41;5047407;28;19920;-82
2023/05/25 05:31:31;;;;;;;;;;;;;;;20.56;nan;102381.41;5047837;28;19920;-81
2023/05/25 05:33:57;;;;;;;;;;;;;;;20.56;nan;102386.84;5049154;28;19925;-81
2023/05/25 05:36:22;;;;;;;;;;;;;;;20.59;nan;102389.03;5045829;28;19925;-82
2023/05/25 05:38:48;;;;;;;;;;;;;;;20.61;nan;102386.84;5048110;28;19926;-82
2023/05/25 05:41:13;;;;;;;;;;;;;;;20.63;nan;102387.38;5047811;28;19923;-82
2023/05/25 05:43:41;;;;;;;;;;;;;;;20.75;nan;102387.06;5046994;28;19916;-82
2023/05/25 05:46:06;;;;;;;;;;;;;;;20.89;nan;102387.31;5043922;28;20244;-81
2023/05/25 05:48:32;;;;;;;;;;;;;;;21.04;nan;102371.72;5045864;28;20389;-82
2023/05/25 05:50:57;;;;;;;;;;;;;;;21.19;nan;102378.22;5046268;28;19916;-82
2023/05/25 05:53:22;;;;;;;;;;;;;;;21.30;nan;102380.63;5045910;28;19924;-82
2023/05/25 05:55:52;;;;;;;;;;;;;;;21.41;nan;102387.66;5047436;28;20085;-83
2023/05/25 05:58:17;;;;;;;;;;;;;;;21.55;nan;102387.03;5046368;28;20589;-82
2023/05/25 06:00:43;;;;;;;;;;;;;;;21.63;nan;102381.78;5047454;28;19924;-82
2023/05/25 06:03:08;;;;;;;;;;;;;;;21.76;nan;102385.00;5043226;28;19931;-82
2023/05/25 06:05:33;;;;;;;;;;;;;;;21.88;nan;102383.50;5047822;28;19968;-82
2023/05/25 06:07:59;;;;;;;;;;;;;;;22.01;nan;102385.59;5046681;28;20007;-82
2023/05/25 06:10:25;;;;;;;;;;;;;;;22.16;nan;102392.88;5047568;28;20042;-82
2023/05/25 06:12:51;;;;;;;;;;;;;;;22.31;nan;102400.13;5049804;28;20193;-82
2023/05/25 06:15:16;;;;;;;;;;;;;;;22.44;nan;102398.63;5048046;28;19920;-82
2023/05/25 06:17:42;;;;;;;;;;;;;;;22.57;nan;102397.94;5043262;28;19917;-82
2023/05/25 06:20:07;;;;;;;;;;;;;;;22.72;nan;102399.72;5046482;28;19920;-82
2023/05/25 06:22:32;;;;;;;;;;;;;;;22.86;nan;102400.69;5046862;28;19921;-82
2023/05/25 06:24:58;;;;;;;;;;;;;;;22.98;nan;102392.06;5047851;28;20254;-82
2023/05/25 06:27:23;;;;;;;;;;;;;;;23.12;nan;102404.72;5047008;28;20350;-82
2023/05/25 06:29:48;;;;;;;;;;;;;;;23.27;nan;102398.25;5048578;28;20007;-82
2023/05/25 06:32:14;;;;;;;;;;;;;;;23.44;nan;102400.47;5043555;28;19921;-82
2023/05/25 06:34:39;;;;;;;;;;;;;;;23.59;nan;102400.31;5046640;28;19921;-82
2023/05/25 06:37:05;;;;;;;;;;;;;;;23.73;nan;102403.94;5046003;28;20428;-82
2023/05/25 06:39:31;;;;;;;;;;;;;;;23.88;nan;102402.03;5046343;28;19925;-82
2023/05/25 06:41:56;;;;;;;;;;;;;;;24.02;nan;102398.25;5045582;28;19971;-82
2023/05/25 06:44:21;;;;;;;;;;;;;;;24.17;nan;102399.94;5043141;28;19917;-82
2023/05/25 06:46:47;;;;;;;;;;;;;;;24.27;nan;102402.50;5047996;28;19925;-83
2023/05/25 06:49:12;;;;;;;;;;;;;;;24.40;nan;102396.25;5045914;28;19917;-82
2023/05/25 06:51:37;;;;;;;;;;;;;;;24.50;nan;102394.44;5046666;28;19917;-82
2023/05/25 06:54:03;;;;;;;;;;;;;;;24.55;nan;102391.59;5060555;28;19921;-82
2023/05/25 06:56:28;;;;;;;;;;;;;;;24.63;nan;102389.00;5044466;28;20625;-82
2023/05/25 06:58:53;;;;;;;;;;;;;;;24.78;nan;102390.63;5045608;28;19917;-82
2023/05/25 07:01:19;;;;;;;;;;;;;;;24.94;nan;102389.16;5045641;28;20407;-82
2023/05/25 07:03:44;;;;;;;;;;;;;;;25.13;nan;102394.56;5045286;28;20467;-82
2023/05/25 07:06:11;;;;;;;;;;;;;;;25.27;nan;102389.06;5058740;28;19924;-82
2023/05/25 07:08:36;;;;;;;;;;;;;;;25.36;nan;102384.50;5059511;28;19916;-82
2023/05/25 07:11:01;;;;;;;;;;;;;;;25.50;nan;102385.28;5046919;28;20265;-83
2023/05/25 07:13:27;;;;;;;;;;;;;;;25.59;nan;102388.88;5046550;28;20058;-82
2023/05/25 07:15:52;;;;;;;;;;;;;;;25.71;nan;102387.56;5047891;28;19924;-83
2023/05/25 07:18:17;;;;;;;;;;;;;;;25.77;nan;102389.88;5046985;28;19923;-82
2023/05/25 07:20:43;;;;;;;;;;;;;;;25.84;nan;102387.47;5042566;28;20013;-82
2023/05/25 07:23:09;;;;;;;;;;;;;;;25.92;nan;102387.88;5044968;28;20422;-82
2023/05/25 07:25:35;;;;;;;;;;;;;;;26.02;nan;102393.09;5046275;28;20418;-82
2023/05/25 07:28:00;;;;;;;;;;;;;;;26.15;nan;102386.72;5044393;28;19916;-81
2023/05/25 07:30:25;;;;;;;;;;;;;;;26.21;nan;102385.47;5045522;28;20030;-82
2023/05/25 07:32:51;;;;;;;;;;;;;;;26.31;nan;102389.91;5046690;28;19920;-82
2023/05/25 07:35:16;;;;;;;;;;;;;;;26.37;nan;102385.91;5046607;28;19956;-82
2023/05/25 07:37:41;;;;;;;;;;;;;;;26.38;nan;102387.53;5045149;28;20008;-82
2023/05/25 07:40:07;;;;;;;;;;;;;;;26.40;nan;102390.78;5049239;28;20635;-81
2023/05/25 07:42:33;;;;;;;;;;;;;;;26.42;nan;102396.78;5050179;28;20411;-82
2023/05/25 07:44:59;;;;;;;;;;;;;;;26.48;nan;102388.06;5051233;28;19924;-82
2023/05/25 07:47:25;;;;;;;;;;;;;;;26.62;nan;102398.97;5048458;28;20447;-82
2023/05/25 07:49:51;;;;;;;;;;;;;;;26.70;nan;102395.44;5050135;28;20171;-81
2023/05/25 07:52:17;;;;;;;;;;;;;;;26.74;nan;102403.84;5048736;28;19916;-81
2023/05/25 07:54:43;;;;;;;;;;;;;;;26.76;nan;102407.94;5045374;28;20368;-81
2023/05/25 07:57:08;;;;;;;;;;;;;;;26.78;nan;102407.63;5048616;28;19931;-82
2023/05/25 07:59:34;;;;;;;;;;;;;;;26.86;nan;102404.06;5050141;28;20426;-82
2023/05/25 08:01:59;;;;;;;;;;;;;;;26.88;nan;102407.31;5048763;28;19920;-83
2023/05/25 08:04:24;;;;;;;;;;;;;;;26.90;nan;102409.72;5048781;28;20402;-84
2023/05/25 08:06:50;;;;;;;;;;;;;;;26.93;nan;102417.34;5049689;28;20609;-81
2023/05/25 08:09:15;;;;;;;;;;;;;;;26.99;nan;102407.84;5049440;28;19939;-82
2023/05/25 08:11:43;;;;;;;;;;;;;;;27.19;nan;102415.53;5049452;28;19917;-82
2023/05/25 08:14:08;;;;;;;;;;;;;;;27.37;nan;102411.66;5050116;28;20044;-82
2023/05/25 08:16:33;;;;;;;;;;;;;;;27.47;nan;102418.81;5048665;28;20043;-83
2023/05/25 08:19:00;;;;;;;;;;;;;;;27.57;nan;102414.91;5050168;28;19944;-83
2023/05/25 08:21:25;;;;;;;;;;;;;;;27.71;nan;102418.34;5048874;28;19920;-83
2023/05/25 08:23:52;;;;;;;;;;;;;;;27.81;nan;102409.75;5048960;28;19944;-82
2023/05/25 08:26:18;;;;;;;;;;;;;;;27.83;nan;102415.78;5046757;28;19925;-83
2023/05/25 08:28:43;;;;;;;;;;;;;;;27.82;nan;102414.13;5049889;28;19924;-82
2023/05/25 08:31:08;;;;;;;;;;;;;;;27.82;nan;102418.81;5046774;28;19921;-83
2023/05/25 08:33:34;;;;;;;;;;;;;;;27.92;nan;102415.75;5039279;28;19931;-83
2023/05/25 08:35:59;;;;;;;;;;;;;;;27.97;nan;102410.88;5045392;28;19923;-83
2023/05/25 08:38:25;;;;;;;;;;;;;;;28.08;nan;102416.06;5049325;28;20348;-82
2023/05/25 08:41:09;;;;;;;;;;;;;;;28.21;nan;102418.63;5047795;28;19923;-83
2023/05/25 08:43:35;;;;;;;;;;;;;;;28.41;nan;102413.56;5048368;28;19988;-84
2023/05/25 08:46:05;;;;;;;;;;;;;;;28.49;nan;102408.00;5046979;28;20419;-82
2023/05/25 08:48:35;;;;;;;;;;;;;;;28.40;nan;102421.03;5048434;28;19932;-82
2023/05/25 08:51:05;;;;;;;;;;;;;;;28.22;nan;102419.44;5048847;28;19921;-83
2023/05/25 08:53:33;;;;;;;;;;;;;;;28.31;nan;102423.00;5049256;28;19921;-83
2023/05/25 08:55:59;;;;;;;;;;;;;;;28.59;nan;102415.94;5047331;28;19921;-83
2023/05/25 08:58:29;;;;;;;;;;;;;;;28.88;nan;102415.16;5048700;28;20351;-83
2023/05/25 09:00:57;;;;;;;;;;;;;;;29.06;nan;102424.16;5047929;28;19918;-83
2023/05/25 09:03:23;;;;;;;;;;;;;;;29.03;nan;102418.50;5045831;28;20537;-83
2023/05/25 09:05:48;;;;;;;;;;;;;;;28.79;nan;102424.63;5047686;28;19964;-82
2023/05/25 09:08:14;;;;;;;;;;;;;;;28.55;nan;102426.00;5041817;28;19928;-82
2023/05/25 09:10:39;;;;;;;;;;;;;;;28.37;nan;102432.72;5045670;28;19916;-83
2023/05/25 09:13:05;;;;;;;;;;;;;;;28.27;nan;102435.81;5047584;28;19928;-82
2023/05/25 09:15:33;;;;;;;;;;;;;;;28.32;nan;102432.06;5048908;28;19924;-82
2023/05/25 09:17:59;;;;;;;;;;;;;;;28.54;nan;102440.09;5047817;28;20243;-83
2023/05/25 09:20:30;;;;;;;;;;;;;;;28.82;nan;102429.47;5045353;28;19992;-82
2023/05/25 09:22:56;;;;;;;;;;;;;;;29.09;nan;102434.56;5046576;28;19951;-82
2023/05/25 09:25:21;;;;;;;;;;;;;;;29.08;nan;102432.91;5047733;28;19964;-82
2023/05/25 09:27:48;;;;;;;;;;;;;;;28.92;nan;102431.88;5048269;28;20338;-82
2023/05/25 09:30:13;;;;;;;;;;;;;;;28.68;nan;102429.69;5047565;28;19970;-82
2023/05/25 09:32:38;;;;;;;;;;;;;;;28.61;nan;102423.88;5047400;28;19917;-82
2023/05/25 09:35:11;;;;;;;;;;;;;;;28.73;nan;102412.16;5047875;28;20007;-82
2023/05/25 09:37:37;;;;;;;;;;;;;;;28.73;nan;102424.00;5047536;28;20466;-81
2023/05/25 09:40:04;;;;;;;;;;;;;;;28.69;nan;102427.72;5046823;28;20202;-82
2023/05/25 09:42:30;;;;;;;;;;;;;;;28.65;nan;102435.06;5047451;28;19932;-82
2023/05/25 09:44:56;;;;;;;;;;;;;;;28.61;nan;102428.59;5047416;28;19916;-82
2023/05/25 09:47:22;;;;;;;;;;;;;;;28.57;nan;102428.44;5046201;28;20070;-82
2023/05/25 09:49:49;;;;;;;;;;;;;;;28.63;nan;102427.13;5048220;28;20019;-82
2023/05/25 09:52:15;;;;;;;;;;;;;;;28.83;nan;102431.06;5043497;28;19956;-82
2023/05/25 09:54:44;;;;;;;;;;;;;;;29.12;nan;102433.06;5047790;28;19952;-81
2023/05/25 09:57:09;;;;;;;;;;;;;;;29.36;nan;102422.19;5046764;28;19956;-81
2023/05/25 09:59:35;;;;;;;;;;;;;;;29.36;nan;102435.19;5047520;28;20374;-81
2023/05/25 10:02:00;;;;;;;;;;;;;;;29.28;nan;102433.31;5044453;28;19963;-81
2023/05/25 10:04:26;;;;;;;;;;;;;;;29.07;nan;102425.78;5046624;28;19924;-81
2023/05/25 10:06:52;;;;;;;;;;;;;;;29.11;nan;102426.75;5046482;28;20008;-81
2023/05/25 10:09:18;;;;;;;;;;;;;;;29.32;nan;102428.72;5045148;28;19966;-81
2023/05/25 10:11:43;;;;;;;;;;;;;;;29.62;nan;102423.97;5046965;28;19967;-83
2023/05/25 10:14:13;;;;;;;;;;;;;;;29.81;nan;102431.78;5045560;28;19952;-83
2023/05/25 10:16:40;;;;;;;;;;;;;;;29.90;nan;102438.84;5042250;28;19917;-81
2023/05/25 10:19:09;;;;;;;;;;;;;;;29.79;nan;102435.69;5047119;28;19917;-82
2023/05/25 10:21:36;;;;;;;;;;;;;;;29.65;nan;102429.66;5044845;28;19917;-82
2023/05/25 10:24:24;;;;;;;;;;;;;;;29.43;nan;102429.94;5046237;28;19970;-81
2023/05/25 10:26:53;;;;;;;;;;;;;;;29.43;nan;102425.22;5026113;28;20377;-82
2023/05/25 10:29:19;;;;;;;;;;;;;;;29.66;nan;102422.97;5046817;28;19971;-82
2023/05/25 10:31:44;;;;;;;;;;;;;;;29.89;nan;102426.19;5046112;28;20300;-82
2023/05/25 10:34:10;;;;;;;;;;;;;;;30.02;nan;102429.81;5048870;28;19921;-83
2023/05/25 10:36:36;;;;;;;;;;;;;;;30.02;nan;102422.31;5042715;28;19920;-83
2023/05/25 10:39:02;;;;;;;;;;;;;;;29.95;nan;102429.53;5045359;28;20285;-82
2023/05/25 10:41:27;;;;;;;;;;;;;;;29.74;nan;102437.84;5048101;28;19917;-82
2023/05/25 10:43:54;;;;;;;;;;;;;;;29.67;nan;102427.34;5047298;28;20425;-82
2023/05/25 10:46:20;;;;;;;;;;;;;;;29.73;nan;102426.00;5046241;28;19928;-82
2023/05/25 10:48:50;;;;;;;;;;;;;;;29.98;nan;102428.84;5043669;28;19917;-83
2023/05/25 10:51:17;;;;;;;;;;;;;;;30.11;nan;102425.00;5046374;28;19931;-83
2023/05/25 10:53:47;;;;;;;;;;;;;;;30.13;nan;102424.66;5044141;28;19923;-83
2023/05/25 10:56:13;;;;;;;;;;;;;;;30.12;nan;102423.06;5046777;28;19940;-83
2023/05/25 10:58:43;;;;;;;;;;;;;;;30.03;nan;102417.59;5047331;28;20373;-83
2023/05/25 11:01:10;;;;;;;;;;;;;;;30.00;nan;102429.34;5044047;28;19959;-83
2023/05/25 11:03:57;;;;;;;;;;;;;;;29.92;nan;102428.25;5044682;28;19924;-83
2023/05/25 11:06:43;;;;;;;;;;;;;;;29.75;nan;102422.88;5043692;28;19991;-82
2023/05/25 11:09:22;;;;;;;;;;;;;;;29.74;nan;102421.28;5046495;28;19959;-81
2023/05/25 11:11:49;;;;;;;;;;;;;;;29.96;nan;102423.66;5045448;28;19927;-82
2023/05/25 11:14:28;;;;;;;;;;;;;;;30.30;nan;102419.75;5046079;28;20435;-81
2023/05/25 11:17:02;;;;;;;;;;;;;;;30.44;nan;102413.09;5042861;28;20007;-81
2023/05/25 11:19:38;;;;;;;;;;;;;;;30.38;nan;102418.88;5046384;28;19951;-81
2023/05/25 11:22:14;;;;;;;;;;;;;;;30.36;nan;102415.66;5046448;28;19920;-81
2023/05/25 11:24:41;;;;;;;;;;;;;;;30.21;nan;102424.59;5045542;28;19928;-82
2023/05/25 11:27:07;;;;;;;;;;;;;;;30.06;nan;102417.75;5045279;28;19925;-81
2023/05/25 11:29:35;;;;;;;;;;;;;;;29.94;nan;102422.38;5044115;28;19978;-81
2023/05/25 11:32:01;;;;;;;;;;;;;;;29.69;nan;102414.00;5044412;28;20000;-83
2023/05/25 11:34:27;;;;;;;;;;;;;;;29.58;nan;102423.84;5046228;28;20498;-83
2023/05/25 11:37:02;;;;;;;;;;;;;;;29.45;nan;102420.22;5045869;28;19928;-82
2023/05/25 11:39:28;;;;;;;;;;;;;;;29.43;nan;102421.66;5045417;28;19920;-82
2023/05/25 11:41:54;;;;;;;;;;;;;;;29.45;nan;102420.22;5046364;28;20280;-83
2023/05/25 11:44:27;;;;;;;;;;;;;;;29.53;nan;102418.53;5044999;28;19928;-84
2023/05/25 11:46:56;;;;;;;;;;;;;;;29.78;nan;102417.47;5043771;28;20058;-84
2023/05/25 11:49:21;;;;;;;;;;;;;;;30.16;nan;102410.16;5044232;28;20002;-83
2023/05/25 11:51:47;;;;;;;;;;;;;;;30.57;nan;102414.75;5044595;28;19975;-83
2023/05/25 11:54:25;;;;;;;;;;;;;;;30.79;nan;102407.97;5045113;28;20285;-84
2023/05/25 11:56:51;;;;;;;;;;;;;;;30.84;nan;102419.59;5042757;28;19931;-83
2023/05/25 11:59:17;;;;;;;;;;;;;;;30.74;nan;102409.03;5044219;28;19924;-84
2023/05/25 12:01:42;;;;;;;;;;;;;;;30.57;nan;102414.75;5046421;28;20337;-83
2023/05/25 12:04:08;;;;;;;;;;;;;;;30.38;nan;102413.34;5044143;28;21297;-83
2023/05/25 12:06:35;;;;;;;;;;;;;;;30.41;nan;102408.28;5045552;28;20031;-83
2023/05/25 12:09:01;;;;;;;;;;;;;;;30.41;nan;102422.09;5044905;28;19917;-83
2023/05/25 12:11:27;;;;;;;;;;;;;;;30.57;nan;102409.22;5043847;28;20432;-83
2023/05/25 12:13:53;;;;;;;;;;;;;;;30.86;nan;102411.75;5046670;28;19924;-86
2023/05/25 12:16:18;;;;;;;;;;;;;;;31.01;nan;102406.69;5045521;28;19917;-83
2023/05/25 12:18:44;;;;;;;;;;;;;;;31.01;nan;102407.50;5046323;28;19921;-83
2023/05/25 12:21:10;;;;;;;;;;;;;;;31.04;nan;102406.78;5046160;28;19951;-84
2023/05/25 12:23:35;;;;;;;;;;;;;;;31.05;nan;102408.41;5050411;28;19916;-83
2023/05/25 12:26:11;;;;;;;;;;;;;;;30.91;nan;102408.78;5047559;28;19929;-82
2023/05/25 12:28:36;;;;;;;;;;;;;;;30.78;nan;102404.41;5049259;28;20222;-83
2023/05/25 12:31:21;;;;;;;;;;;;;;;30.75;nan;102404.28;5050173;28;20059;-83
2023/05/25 12:34:00;;;;;;;;;;;;;;;30.86;nan;102395.16;5045111;28;19920;-83
2023/05/25 12:36:38;;;;;;;;;;;;;;;30.81;nan;102402.91;5047381;28;19921;-84
2023/05/25 12:39:04;;;;;;;;;;;;;;;30.72;nan;102416.88;5049385;28;19917;-83
2023/05/25 12:41:31;;;;;;;;;;;;;;;30.70;nan;102402.53;5048146;28;19955;-83
2023/05/25 12:43:56;;;;;;;;;;;;;;;30.67;nan;102403.25;5049028;28;19924;-83
2023/05/25 12:46:25;;;;;;;;;;;;;;;30.71;nan;102404.19;5049695;28;19925;-83
2023/05/25 12:48:50;;;;;;;;;;;;;;;30.90;nan;102392.53;5047931;28;19916;-83
2023/05/25 12:51:16;;;;;;;;;;;;;;;31.09;nan;102397.47;5048052;28;20359;-83
2023/05/25 12:53:47;;;;;;;;;;;;;;;31.16;nan;102398.47;5049182;28;19917;-83
2023/05/25 12:56:13;;;;;;;;;;;;;;;31.21;nan;102394.69;5049229;28;19923;-83